createdAt,value
2018-05-16T00:00:27.882Z,17.70
2018-05-16T00:01:05.525Z,17.70
2018-05-16T00:01:43.089Z,17.70
2018-05-16T00:02:20.509Z,17.70
2018-05-16T00:02:58.703Z,17.70
2018-05-16T00:03:36.218Z,17.80
2018-05-16T00:04:13.632Z,17.80
2018-05-16T00:04:51.283Z,17.80
2018-05-16T00:05:28.845Z,17.80
2018-05-16T00:06:06.281Z,17.80
2018-05-16T00:06:43.652Z,17.80
2018-05-16T00:07:21.072Z,17.80
2018-05-16T00:07:58.648Z,17.80
2018-05-16T00:08:35.988Z,17.80
2018-05-16T00:09:14.115Z,17.70
2018-05-16T00:09:51.707Z,17.70
2018-05-16T00:10:29.243Z,17.60
2018-05-16T00:11:06.868Z,17.60
2018-05-16T00:11:45.082Z,17.60
2018-05-16T00:12:22.508Z,17.60
2018-05-16T00:13:00.617Z,17.70
2018-05-16T00:13:38.199Z,17.60
2018-05-16T00:14:15.833Z,17.70
2018-05-16T00:14:53.398Z,17.70
2018-05-16T00:15:30.969Z,17.70
2018-05-16T00:16:08.536Z,17.80
2018-05-16T00:16:46.133Z,17.70
2018-05-16T00:17:23.727Z,17.70
2018-05-16T00:18:01.160Z,17.70
2018-05-16T00:18:38.518Z,17.70
2018-05-16T00:19:15.884Z,17.60
2018-05-16T00:19:53.271Z,17.60
2018-05-16T00:20:30.643Z,17.60
2018-05-16T00:21:08.972Z,17.70
2018-05-16T00:21:46.551Z,17.60
2018-05-16T00:22:23.920Z,17.60
2018-05-16T00:23:01.295Z,17.60
2018-05-16T00:23:38.819Z,17.60
2018-05-16T00:24:16.292Z,17.60
2018-05-16T00:24:54.460Z,17.70
2018-05-16T00:25:32.055Z,17.70
2018-05-16T00:26:09.545Z,17.70
2018-05-16T00:26:46.961Z,17.80
2018-05-16T00:27:24.385Z,17.70
2018-05-16T00:28:01.782Z,17.70
2018-05-16T00:28:39.338Z,17.70
2018-05-16T00:29:16.932Z,17.70
2018-05-16T00:29:54.538Z,17.70
2018-05-16T00:30:32.019Z,17.70
2018-05-16T00:31:09.386Z,17.70
2018-05-16T00:31:47.486Z,17.70
2018-05-16T00:32:25.291Z,17.60
2018-05-16T00:33:02.619Z,17.70
2018-05-16T00:33:40.799Z,17.70
2018-05-16T00:34:18.292Z,17.60
2018-05-16T00:34:55.866Z,17.60
2018-05-16T00:35:33.407Z,17.60
2018-05-16T00:36:10.964Z,17.50
2018-05-16T00:36:48.527Z,17.50
2018-05-16T00:37:25.978Z,17.50
2018-05-16T00:38:04.077Z,17.50
2018-05-16T00:38:41.536Z,17.60
2018-05-16T00:39:19.639Z,17.50
2018-05-16T00:39:57.327Z,17.50
2018-05-16T00:40:34.909Z,17.50
2018-05-16T00:41:12.490Z,17.50
2018-05-16T00:41:49.849Z,17.50
2018-05-16T00:42:27.365Z,17.50
2018-05-16T00:43:05.516Z,17.50
2018-05-16T00:43:43.035Z,17.50
2018-05-16T00:44:20.630Z,17.60
2018-05-16T00:44:58.145Z,17.60
2018-05-16T00:45:35.537Z,17.60
2018-05-16T00:46:13.663Z,17.50
2018-05-16T00:46:51.251Z,17.50
2018-05-16T00:47:29.526Z,17.60
2018-05-16T00:48:07.838Z,17.60
2018-05-16T00:48:46.160Z,17.70
2018-05-16T00:49:23.611Z,17.60
2018-05-16T00:50:01.999Z,17.60
2018-05-16T00:50:39.593Z,17.50
2018-05-16T00:51:17.151Z,17.60
2018-05-16T00:51:55.270Z,17.60
2018-05-16T00:52:32.843Z,17.50
2018-05-16T00:53:10.429Z,17.50
2018-05-16T00:53:48.023Z,17.60
2018-05-16T00:54:26.230Z,17.50
2018-05-16T00:55:03.826Z,17.50
2018-05-16T00:55:41.998Z,17.50
2018-05-16T00:56:19.560Z,17.50
2018-05-16T00:56:57.689Z,17.60
2018-05-16T00:57:35.853Z,17.60
2018-05-16T00:58:13.442Z,17.60
2018-05-16T00:58:50.902Z,17.70
2018-05-16T00:59:28.414Z,17.60
2018-05-16T01:00:05.976Z,17.50
2018-05-16T01:00:44.384Z,17.50
2018-05-16T01:01:21.787Z,17.50
2018-05-16T01:01:59.362Z,17.50
2018-05-16T01:02:36.934Z,17.50
2018-05-16T01:03:15.097Z,17.50
2018-05-16T01:03:52.511Z,17.50
2018-05-16T01:04:30.070Z,17.50
2018-05-16T01:05:07.610Z,17.40
2018-05-16T01:05:45.178Z,17.40
2018-05-16T01:06:22.704Z,17.40
2018-05-16T01:07:00.259Z,17.40
2018-05-16T01:07:37.877Z,17.50
2018-05-16T01:08:15.463Z,17.50
2018-05-16T01:08:53.030Z,17.50
2018-05-16T01:09:30.412Z,17.40
2018-05-16T01:10:07.995Z,17.30
2018-05-16T01:10:45.603Z,17.30
2018-05-16T01:11:23.153Z,17.40
2018-05-16T01:12:00.731Z,17.30
2018-05-16T01:12:38.241Z,17.10
2018-05-16T01:13:15.898Z,17.30
2018-05-16T01:13:53.199Z,17.30
2018-05-16T01:14:30.759Z,17.30
2018-05-16T01:15:08.246Z,17.30
2018-05-16T01:15:45.822Z,17.40
2018-05-16T01:16:24.210Z,17.40
2018-05-16T01:17:02.506Z,17.40
2018-05-16T01:17:39.870Z,17.40
2018-05-16T01:18:17.495Z,17.50
2018-05-16T01:18:55.086Z,17.40
2018-05-16T01:19:32.690Z,17.50
2018-05-16T01:20:10.240Z,17.40
2018-05-16T01:20:47.814Z,17.40
2018-05-16T01:21:25.391Z,17.40
2018-05-16T01:22:03.594Z,17.40
2018-05-16T01:22:41.681Z,17.40
2018-05-16T01:23:19.258Z,17.50
2018-05-16T01:23:56.696Z,17.50
2018-05-16T01:24:34.310Z,17.40
2018-05-16T01:25:11.959Z,17.40
2018-05-16T01:25:49.498Z,17.40
2018-05-16T01:26:27.029Z,17.50
2018-05-16T01:27:04.530Z,17.40
2018-05-16T01:27:42.019Z,17.50
2018-05-16T01:28:19.354Z,17.50
2018-05-16T01:28:57.482Z,17.50
2018-05-16T01:29:34.948Z,17.50
2018-05-16T01:30:13.236Z,17.50
2018-05-16T01:30:51.327Z,17.50
2018-05-16T01:31:28.744Z,17.50
2018-05-16T01:32:06.338Z,17.50
2018-05-16T01:32:44.412Z,17.50
2018-05-16T01:33:21.975Z,17.50
2018-05-16T01:33:59.495Z,17.50
2018-05-16T01:34:36.903Z,17.50
2018-05-16T01:35:14.521Z,17.50
2018-05-16T01:35:52.106Z,17.50
2018-05-16T01:36:30.395Z,17.50
2018-05-16T01:37:08.689Z,17.50
2018-05-16T01:37:46.271Z,17.50
2018-05-16T01:38:23.843Z,17.50
2018-05-16T01:39:01.489Z,17.50
2018-05-16T01:39:39.056Z,17.50
2018-05-16T01:40:16.600Z,17.50
2018-05-16T01:40:53.947Z,17.60
2018-05-16T01:41:31.455Z,17.60
2018-05-16T01:42:09.566Z,17.60
2018-05-16T01:42:46.925Z,17.60
2018-05-16T01:43:25.219Z,17.40
2018-05-16T01:44:02.609Z,17.40
2018-05-16T01:44:40.169Z,17.50
2018-05-16T01:45:17.647Z,17.40
2018-05-16T01:45:55.034Z,17.40
2018-05-16T01:46:32.550Z,17.40
2018-05-16T01:47:10.123Z,17.40
2018-05-16T01:47:47.623Z,17.50
2018-05-16T01:48:25.211Z,17.50
2018-05-16T01:49:02.702Z,17.50
2018-05-16T01:49:40.312Z,17.60
2018-05-16T01:50:17.732Z,17.60
2018-05-16T01:50:55.271Z,17.50
2018-05-16T01:51:32.663Z,17.50
2018-05-16T01:52:10.185Z,17.50
2018-05-16T01:52:47.744Z,17.50
2018-05-16T01:53:25.116Z,17.50
2018-05-16T01:54:02.723Z,17.50
2018-05-16T01:54:41.104Z,17.60
2018-05-16T01:55:18.568Z,17.50
2018-05-16T01:55:56.038Z,17.50
2018-05-16T01:56:33.416Z,17.40
2018-05-16T01:57:10.790Z,17.40
2018-05-16T01:57:48.156Z,17.40
2018-05-16T01:58:26.355Z,17.50
2018-05-16T01:59:03.907Z,17.50
2018-05-16T01:59:41.454Z,17.40
2018-05-16T02:00:19.024Z,17.40
2018-05-16T02:00:56.530Z,17.40
2018-05-16T02:01:34.087Z,17.40
2018-05-16T02:02:12.382Z,17.40
2018-05-16T02:02:49.750Z,17.40
2018-05-16T02:03:27.135Z,17.50
2018-05-16T02:04:04.477Z,17.50
2018-05-16T02:04:42.114Z,17.60
2018-05-16T02:05:19.720Z,17.60
2018-05-16T02:05:57.260Z,17.50
2018-05-16T02:06:34.727Z,17.60
2018-05-16T02:07:12.851Z,17.50
2018-05-16T02:07:51.142Z,17.50
2018-05-16T02:08:28.660Z,17.50
2018-05-16T02:09:06.854Z,17.50
2018-05-16T02:09:44.398Z,17.50
2018-05-16T02:10:21.983Z,17.60
2018-05-16T02:10:59.322Z,17.50
2018-05-16T02:11:36.828Z,17.50
2018-05-16T02:12:14.502Z,17.50
2018-05-16T02:12:51.878Z,17.50
2018-05-16T02:13:29.527Z,17.50
2018-05-16T02:14:07.662Z,17.50
2018-05-16T02:14:45.013Z,17.50
2018-05-16T02:15:22.327Z,17.50
2018-05-16T02:16:00.522Z,17.60
2018-05-16T02:16:38.011Z,17.50
2018-05-16T02:17:15.564Z,17.50
2018-05-16T02:17:52.915Z,17.50
2018-05-16T02:18:30.559Z,17.50
2018-05-16T02:19:08.927Z,17.50
2018-05-16T02:19:47.137Z,17.40
2018-05-16T02:20:24.675Z,17.40
2018-05-16T02:21:02.052Z,17.40
2018-05-16T02:21:39.390Z,17.40
2018-05-16T02:22:17.558Z,17.40
2018-05-16T02:22:55.684Z,17.50
2018-05-16T02:23:33.247Z,17.50
2018-05-16T02:24:10.613Z,17.50
2018-05-16T02:24:47.945Z,17.40
2018-05-16T02:25:25.322Z,17.40
2018-05-16T02:26:03.466Z,17.40
2018-05-16T02:26:40.953Z,17.40
2018-05-16T02:27:18.414Z,17.40
2018-05-16T02:27:56.795Z,17.40
2018-05-16T02:28:34.094Z,17.30
2018-05-16T02:29:12.370Z,17.40
2018-05-16T02:29:50.654Z,17.40
2018-05-16T02:30:28.758Z,17.40
2018-05-16T02:31:06.408Z,17.40
2018-05-16T02:31:43.911Z,17.40
2018-05-16T02:32:21.454Z,17.40
2018-05-16T02:32:58.966Z,17.30
2018-05-16T02:33:36.354Z,17.30
2018-05-16T02:34:13.782Z,17.30
2018-05-16T02:34:51.352Z,17.30
2018-05-16T02:35:28.923Z,17.30
2018-05-16T02:36:06.479Z,17.30
2018-05-16T02:36:43.966Z,17.20
2018-05-16T02:37:22.190Z,17.30
2018-05-16T02:37:59.684Z,17.30
2018-05-16T02:38:37.123Z,17.40
2018-05-16T02:39:15.205Z,17.40
2018-05-16T02:39:52.825Z,17.40
2018-05-16T02:40:30.417Z,17.40
2018-05-16T02:41:07.936Z,17.40
2018-05-16T02:41:45.555Z,17.40
2018-05-16T02:42:23.096Z,17.50
2018-05-16T02:43:00.631Z,17.40
2018-05-16T02:43:38.182Z,17.50
2018-05-16T02:44:15.761Z,17.50
2018-05-16T02:44:53.131Z,17.50
2018-05-16T02:45:30.649Z,17.50
2018-05-16T02:46:08.197Z,17.50
2018-05-16T02:46:45.838Z,17.50
2018-05-16T02:47:24.100Z,17.50
2018-05-16T02:48:02.382Z,17.50
2018-05-16T02:48:40.024Z,17.50
2018-05-16T02:49:17.580Z,17.50
2018-05-16T02:49:54.903Z,17.50
2018-05-16T02:50:32.504Z,17.50
2018-05-16T02:51:10.820Z,17.50
2018-05-16T02:51:48.359Z,17.50
2018-05-16T02:52:25.819Z,17.50
2018-05-16T02:53:03.441Z,17.50
2018-05-16T02:53:41.050Z,17.40
2018-05-16T02:54:18.568Z,17.40
2018-05-16T02:54:56.206Z,17.50
2018-05-16T02:55:33.691Z,17.50
2018-05-16T02:56:11.240Z,17.50
2018-05-16T02:56:48.618Z,17.50
2018-05-16T02:57:25.953Z,17.50
2018-05-16T02:58:03.479Z,17.60
2018-05-16T02:58:40.859Z,17.50
2018-05-16T02:59:18.203Z,17.50
2018-05-16T02:59:56.632Z,17.50
2018-05-16T03:00:34.181Z,17.50
2018-05-16T03:01:11.544Z,17.50
2018-05-16T03:01:49.090Z,17.50
2018-05-16T03:02:26.667Z,17.50
2018-05-16T03:03:04.234Z,17.50
2018-05-16T03:03:41.842Z,17.50
2018-05-16T03:04:20.012Z,17.50
2018-05-16T03:04:58.137Z,17.50
2018-05-16T03:05:35.621Z,17.50
2018-05-16T03:06:13.142Z,17.50
2018-05-16T03:06:50.665Z,17.60
2018-05-16T03:07:28.178Z,17.60
2018-05-16T03:08:05.802Z,17.70
2018-05-16T03:08:43.999Z,17.70
2018-05-16T03:09:21.483Z,17.70
2018-05-16T03:09:59.819Z,17.60
2018-05-16T03:10:37.442Z,17.60
2018-05-16T03:11:14.861Z,17.70
2018-05-16T03:11:52.503Z,17.70
2018-05-16T03:12:29.883Z,17.80
2018-05-16T03:13:07.470Z,17.80
2018-05-16T03:13:45.923Z,17.70
2018-05-16T03:14:24.190Z,17.70
2018-05-16T03:15:01.767Z,17.70
2018-05-16T03:15:39.117Z,17.60
2018-05-16T03:16:16.464Z,17.60
2018-05-16T03:16:54.599Z,17.60
2018-05-16T03:17:31.938Z,17.60
2018-05-16T03:18:09.469Z,17.60
2018-05-16T03:18:46.853Z,17.70
2018-05-16T03:19:24.398Z,17.70
2018-05-16T03:20:01.912Z,17.60
2018-05-16T03:20:39.435Z,17.60
2018-05-16T03:21:16.822Z,17.60
2018-05-16T03:21:54.454Z,17.60
2018-05-16T03:22:31.881Z,17.70
2018-05-16T03:23:09.398Z,17.70
2018-05-16T03:23:47.570Z,17.70
2018-05-16T03:24:25.209Z,17.70
2018-05-16T03:25:02.767Z,17.80
2018-05-16T03:25:40.311Z,17.70
2018-05-16T03:26:17.933Z,17.70
2018-05-16T03:26:55.490Z,17.70
2018-05-16T03:27:32.932Z,17.70
2018-05-16T03:28:10.455Z,17.70
2018-05-16T03:28:48.041Z,17.80
2018-05-16T03:29:26.407Z,17.80
2018-05-16T03:30:03.778Z,17.80
2018-05-16T03:30:41.139Z,17.60
2018-05-16T03:31:18.536Z,17.70
2018-05-16T03:31:56.043Z,17.70
2018-05-16T03:32:33.655Z,17.70
2018-05-16T03:33:11.323Z,17.70
2018-05-16T03:33:48.912Z,17.80
2018-05-16T03:34:26.436Z,17.80
2018-05-16T03:35:04.061Z,17.80
2018-05-16T03:35:41.647Z,17.70
2018-05-16T03:36:19.208Z,17.70
2018-05-16T03:36:56.754Z,17.70
2018-05-16T03:37:34.162Z,17.70
2018-05-16T03:38:11.755Z,17.70
2018-05-16T03:38:49.364Z,17.70
2018-05-16T03:39:26.938Z,17.70
2018-05-16T03:40:04.484Z,17.70
2018-05-16T03:40:41.833Z,17.70
2018-05-16T03:41:19.211Z,17.80
2018-05-16T03:41:56.713Z,17.70
2018-05-16T03:42:34.066Z,17.70
2018-05-16T03:43:11.618Z,17.80
2018-05-16T03:43:48.976Z,17.70
2018-05-16T03:44:26.445Z,17.70
2018-05-16T03:45:04.019Z,17.70
2018-05-16T03:45:41.328Z,17.60
2018-05-16T03:46:18.668Z,17.70
2018-05-16T03:46:56.239Z,17.60
2018-05-16T03:47:33.603Z,17.70
2018-05-16T03:48:11.129Z,17.70
2018-05-16T03:48:48.698Z,17.60
2018-05-16T03:49:26.279Z,17.60
2018-05-16T03:50:03.715Z,17.60
2018-05-16T03:50:41.820Z,17.70
2018-05-16T03:51:19.182Z,17.70
2018-05-16T03:51:56.731Z,17.60
2018-05-16T03:52:34.078Z,17.60
2018-05-16T03:53:11.640Z,17.60
2018-05-16T03:53:49.039Z,17.50
2018-05-16T03:54:26.471Z,17.60
2018-05-16T03:55:03.914Z,17.70
2018-05-16T03:55:42.081Z,17.50
2018-05-16T03:56:19.433Z,17.50
2018-05-16T03:56:56.780Z,17.60
2018-05-16T03:57:34.435Z,17.60
2018-05-16T03:58:11.851Z,17.60
2018-05-16T03:58:49.442Z,17.70
2018-05-16T03:59:26.767Z,17.60
2018-05-16T04:00:04.328Z,17.50
2018-05-16T04:00:41.721Z,17.50
2018-05-16T04:01:19.282Z,17.50
2018-05-16T04:01:56.642Z,17.50
2018-05-16T04:02:34.155Z,17.50
2018-05-16T04:03:11.587Z,17.60
2018-05-16T04:03:49.209Z,17.50
2018-05-16T04:04:26.835Z,17.60
2018-05-16T04:05:04.992Z,17.50
2018-05-16T04:05:42.371Z,17.50
2018-05-16T04:06:20.651Z,17.50
2018-05-16T04:06:58.265Z,17.50
2018-05-16T04:07:35.833Z,17.50
2018-05-16T04:08:13.451Z,17.50
2018-05-16T04:08:50.872Z,17.50
2018-05-16T04:09:28.474Z,17.50
2018-05-16T04:10:06.062Z,17.40
2018-05-16T04:10:43.620Z,17.40
2018-05-16T04:11:21.223Z,17.50
2018-05-16T04:11:58.820Z,17.50
2018-05-16T04:12:36.305Z,17.50
2018-05-16T04:13:14.663Z,17.60
2018-05-16T04:13:52.944Z,17.60
2018-05-16T04:15:58.722Z,17.60
2018-05-16T04:16:36.159Z,17.50
2018-05-16T04:17:13.792Z,17.40
2018-05-16T04:17:51.215Z,17.40
2018-05-16T04:18:28.589Z,17.40
2018-05-16T04:19:06.200Z,17.40
2018-05-16T04:19:44.502Z,17.50
2018-05-16T04:20:22.077Z,17.50
2018-05-16T04:20:59.461Z,17.60
2018-05-16T04:21:37.027Z,17.60
2018-05-16T04:22:14.387Z,17.60
2018-05-16T04:22:51.814Z,17.60
2018-05-16T04:23:29.393Z,17.50
2018-05-16T04:24:06.959Z,17.50
2018-05-16T04:24:44.542Z,17.50
2018-05-16T04:25:22.199Z,17.50
2018-05-16T04:25:59.676Z,17.60
2018-05-16T04:26:37.056Z,17.50
2018-05-16T04:27:14.597Z,17.60
2018-05-16T04:27:51.939Z,17.50
2018-05-16T04:28:29.380Z,17.50
2018-05-16T04:29:06.756Z,17.60
2018-05-16T04:29:44.267Z,17.60
2018-05-16T04:30:22.563Z,17.50
2018-05-16T04:31:00.165Z,17.50
2018-05-16T04:31:37.561Z,17.50
2018-05-16T04:32:14.915Z,17.50
2018-05-16T04:32:52.461Z,17.50
2018-05-16T04:33:29.964Z,17.50
2018-05-16T04:34:07.555Z,17.50
2018-05-16T04:34:45.135Z,17.60
2018-05-16T04:35:22.734Z,17.60
2018-05-16T04:36:00.274Z,17.60
2018-05-16T04:36:37.832Z,17.70
2018-05-16T04:37:15.325Z,17.70
2018-05-16T04:38:10.979Z,17.60
2018-05-16T04:38:48.563Z,17.60
2018-05-16T04:39:25.977Z,17.50
2018-05-16T04:40:03.491Z,17.50
2018-05-16T04:40:41.068Z,17.50
2018-05-16T04:41:19.161Z,17.60
2018-05-16T04:41:56.487Z,17.70
2018-05-16T04:42:34.105Z,17.50
2018-05-16T04:43:11.464Z,17.50
2018-05-16T04:43:48.860Z,17.30
2018-05-16T04:44:26.372Z,17.40
2018-05-16T04:45:03.775Z,17.40
2018-05-16T04:45:41.309Z,17.50
2018-05-16T04:46:18.898Z,17.50
2018-05-16T04:46:56.504Z,17.60
2018-05-16T04:47:34.047Z,17.50
2018-05-16T04:48:11.691Z,17.50
2018-05-16T04:48:49.184Z,17.50
2018-05-16T04:49:26.722Z,17.70
2018-05-16T04:50:04.248Z,17.70
2018-05-16T04:50:42.583Z,17.80
2018-05-16T04:51:20.855Z,17.90
2018-05-16T04:51:58.531Z,17.80
2018-05-16T04:52:36.069Z,17.90
2018-05-16T04:53:13.632Z,17.90
2018-05-16T04:53:51.219Z,17.90
2018-05-16T04:54:28.627Z,17.90
2018-05-16T04:55:06.125Z,17.80
2018-05-16T04:55:43.515Z,17.80
2018-05-16T04:56:20.816Z,17.80
2018-05-16T04:56:58.155Z,17.90
2018-05-16T04:57:35.671Z,17.90
2018-05-16T04:58:13.185Z,18.00
2018-05-16T04:58:50.711Z,18.00
2018-05-16T04:59:28.288Z,18.00
2018-05-16T05:00:05.956Z,18.00
2018-05-16T05:00:43.469Z,17.90
2018-05-16T05:01:20.806Z,17.90
2018-05-16T05:01:58.186Z,17.90
2018-05-16T05:02:35.548Z,17.90
2018-05-16T05:03:13.890Z,17.90
2018-05-16T05:03:51.499Z,18.00
2018-05-16T05:04:28.971Z,17.90
2018-05-16T05:05:06.907Z,18.00
2018-05-16T05:05:44.246Z,18.00
2018-05-16T05:06:21.789Z,17.90
2018-05-16T05:06:59.988Z,17.90
2018-05-16T05:07:37.383Z,17.90
2018-05-16T05:08:14.976Z,17.90
2018-05-16T05:08:52.557Z,18.00
2018-05-16T05:09:30.116Z,17.90
2018-05-16T05:10:07.736Z,17.90
2018-05-16T05:10:45.307Z,17.90
2018-05-16T05:11:22.871Z,17.90
2018-05-16T05:12:00.312Z,17.70
2018-05-16T05:12:37.828Z,17.70
2018-05-16T05:13:15.381Z,17.60
2018-05-16T05:13:52.939Z,17.50
2018-05-16T05:14:30.319Z,17.60
2018-05-16T05:15:07.662Z,17.60
2018-05-16T05:15:45.203Z,17.60
2018-05-16T05:16:22.796Z,17.70
2018-05-16T05:17:00.332Z,17.70
2018-05-16T05:17:37.701Z,17.70
2018-05-16T05:18:16.089Z,17.70
2018-05-16T05:18:54.299Z,17.60
2018-05-16T05:19:31.653Z,17.70
2018-05-16T05:20:09.331Z,17.70
2018-05-16T05:20:47.811Z,17.60
2018-05-16T05:21:25.387Z,17.60
2018-05-16T05:22:03.465Z,17.60
2018-05-16T05:22:41.782Z,17.50
2018-05-16T05:23:19.355Z,17.50
2018-05-16T05:23:57.049Z,17.40
2018-05-16T05:24:34.412Z,17.40
2018-05-16T05:25:11.839Z,17.40
2018-05-16T05:25:49.378Z,17.50
2018-05-16T05:26:27.671Z,17.50
2018-05-16T05:27:05.076Z,17.50
2018-05-16T05:27:42.623Z,17.50
2018-05-16T05:28:19.983Z,17.50
2018-05-16T05:28:57.626Z,17.50
2018-05-16T05:29:35.081Z,17.50
2018-05-16T05:30:12.427Z,17.50
2018-05-16T05:30:49.743Z,17.50
2018-05-16T05:31:27.177Z,17.40
2018-05-16T05:32:04.766Z,17.50
2018-05-16T05:32:42.370Z,17.50
2018-05-16T05:33:19.854Z,17.60
2018-05-16T05:33:57.315Z,17.60
2018-05-16T05:34:35.639Z,17.70
2018-05-16T05:35:13.109Z,17.70
2018-05-16T05:35:50.597Z,17.60
2018-05-16T05:36:28.122Z,17.50
2018-05-16T05:37:05.672Z,17.40
2018-05-16T05:37:43.179Z,17.40
2018-05-16T05:38:20.803Z,17.40
2018-05-16T05:38:58.390Z,17.40
2018-05-16T05:39:35.943Z,17.50
2018-05-16T05:40:13.290Z,17.50
2018-05-16T05:40:50.615Z,17.50
2018-05-16T05:41:28.003Z,17.60
2018-05-16T05:42:05.335Z,17.60
2018-05-16T05:42:43.462Z,17.50
2018-05-16T05:43:21.119Z,17.50
2018-05-16T05:43:59.228Z,17.50
2018-05-16T05:44:37.349Z,17.50
2018-05-16T05:45:14.911Z,17.50
2018-05-16T05:45:52.480Z,17.50
2018-05-16T05:46:29.846Z,17.50
2018-05-16T05:47:07.944Z,17.30
2018-05-16T05:47:45.313Z,17.30
2018-05-16T05:48:22.827Z,17.30
2018-05-16T05:49:00.422Z,17.30
2018-05-16T05:49:37.848Z,17.30
2018-05-16T05:50:15.158Z,17.30
2018-05-16T05:50:52.731Z,17.30
2018-05-16T05:51:30.320Z,17.40
2018-05-16T05:52:07.702Z,17.40
2018-05-16T05:52:45.320Z,17.40
2018-05-16T05:53:22.859Z,17.40
2018-05-16T05:54:01.043Z,17.50
2018-05-16T05:54:38.651Z,17.40
2018-05-16T05:55:16.240Z,17.50
2018-05-16T05:55:53.826Z,17.50
2018-05-16T05:56:31.444Z,17.40
2018-05-16T05:57:08.945Z,17.30
2018-05-16T05:57:46.583Z,17.40
2018-05-16T05:58:24.157Z,17.40
2018-05-16T05:59:01.652Z,17.40
2018-05-16T05:59:39.993Z,17.30
2018-05-16T06:00:17.251Z,17.30
2018-05-16T06:00:54.889Z,17.30
2018-05-16T06:01:32.454Z,17.30
2018-05-16T06:02:09.994Z,17.40
2018-05-16T06:02:47.652Z,17.50
2018-05-16T06:03:24.992Z,17.50
2018-05-16T06:04:03.161Z,17.50
2018-05-16T06:04:40.499Z,17.50
2018-05-16T06:05:18.059Z,17.50
2018-05-16T06:05:55.484Z,17.60
2018-05-16T06:06:33.583Z,17.70
2018-05-16T06:07:11.159Z,17.70
2018-05-16T06:07:48.703Z,17.60
2018-05-16T06:08:26.002Z,17.60
2018-05-16T06:09:04.422Z,17.50
2018-05-16T06:09:42.767Z,17.50
2018-05-16T06:10:20.326Z,17.50
2018-05-16T06:10:57.878Z,17.50
2018-05-16T06:11:35.467Z,17.50
2018-05-16T06:12:13.092Z,17.50
2018-05-16T06:12:50.658Z,17.50
2018-05-16T06:13:28.231Z,17.60
2018-05-16T06:14:05.809Z,17.60
2018-05-16T06:14:43.352Z,17.60
2018-05-16T06:15:21.456Z,17.50
2018-05-16T06:15:59.088Z,17.50
2018-05-16T06:16:36.608Z,17.50
2018-05-16T06:17:14.251Z,17.50
2018-05-16T06:17:51.790Z,17.50
2018-05-16T06:18:29.254Z,17.50
2018-05-16T06:19:06.608Z,17.50
2018-05-16T06:19:44.145Z,17.40
2018-05-16T06:20:21.695Z,17.30
2018-05-16T06:21:00.100Z,17.40
2018-05-16T06:21:38.207Z,17.40
2018-05-16T06:22:15.791Z,17.40
2018-05-16T06:22:53.363Z,17.40
2018-05-16T06:23:30.995Z,17.40
2018-05-16T06:24:09.137Z,17.50
2018-05-16T06:24:46.448Z,17.50
2018-05-16T06:25:24.012Z,17.40
2018-05-16T06:26:01.591Z,17.40
2018-05-16T06:26:39.163Z,17.50
2018-05-16T06:27:16.785Z,17.50
2018-05-16T06:27:54.314Z,17.50
2018-05-16T06:28:31.927Z,17.50
2018-05-16T06:29:09.508Z,17.40
2018-05-16T06:29:47.049Z,17.40
2018-05-16T06:30:24.668Z,17.40
2018-05-16T06:31:02.251Z,17.40
2018-05-16T06:31:39.574Z,17.50
2018-05-16T06:32:17.080Z,17.50
2018-05-16T06:32:54.652Z,17.50
2018-05-16T06:33:32.211Z,17.50
2018-05-16T06:34:09.736Z,17.50
2018-05-16T06:34:47.182Z,17.50
2018-05-16T06:35:25.483Z,17.50
2018-05-16T06:36:03.040Z,17.50
2018-05-16T06:36:41.163Z,17.50
2018-05-16T06:37:18.811Z,17.50
2018-05-16T06:37:56.442Z,17.50
2018-05-16T06:38:34.034Z,17.50
2018-05-16T06:39:11.534Z,17.60
2018-05-16T06:39:48.862Z,17.60
2018-05-16T06:40:26.449Z,17.60
2018-05-16T06:41:03.899Z,17.60
2018-05-16T06:41:41.317Z,17.50
2018-05-16T06:42:18.755Z,17.50
2018-05-16T06:42:56.275Z,17.50
2018-05-16T06:43:34.453Z,17.60
2018-05-16T06:44:12.054Z,17.50
2018-05-16T06:44:50.259Z,17.50
2018-05-16T06:45:27.790Z,17.50
2018-05-16T06:46:05.162Z,17.60
2018-05-16T06:46:42.815Z,17.60
2018-05-16T06:47:20.390Z,17.60
2018-05-16T06:47:57.930Z,17.60
2018-05-16T06:48:35.512Z,17.60
2018-05-16T06:49:13.068Z,17.60
2018-05-16T06:49:51.228Z,17.70
2018-05-16T06:50:28.551Z,17.60
2018-05-16T06:51:06.160Z,17.60
2018-05-16T06:51:44.343Z,17.50
2018-05-16T06:52:21.904Z,17.50
2018-05-16T06:52:59.277Z,17.50
2018-05-16T06:53:36.907Z,17.50
2018-05-16T06:54:14.474Z,17.50
2018-05-16T06:54:52.067Z,17.60
2018-05-16T06:55:29.606Z,17.50
2018-05-16T06:56:06.973Z,17.60
2018-05-16T06:56:44.563Z,17.60
2018-05-16T06:57:22.173Z,17.60
2018-05-16T06:57:59.782Z,17.60
2018-05-16T06:58:37.357Z,17.60
2018-05-16T06:59:14.745Z,17.60
2018-05-16T06:59:52.057Z,17.60
2018-05-16T07:00:29.454Z,17.60
2018-05-16T07:01:07.069Z,17.70
2018-05-16T07:01:44.688Z,17.70
2018-05-16T07:02:22.306Z,17.60
2018-05-16T07:02:59.871Z,17.60
2018-05-16T07:03:37.489Z,17.60
2018-05-16T07:04:14.858Z,17.60
2018-05-16T07:04:52.485Z,17.60
2018-05-16T07:05:29.834Z,17.60
2018-05-16T07:06:07.416Z,17.70
2018-05-16T07:06:44.981Z,17.60
2018-05-16T07:07:23.146Z,17.60
2018-05-16T07:08:01.256Z,17.60
2018-05-16T07:08:39.346Z,17.60
2018-05-16T07:09:16.937Z,17.60
2018-05-16T07:09:55.320Z,17.60
2018-05-16T07:10:33.411Z,17.70
2018-05-16T07:11:10.767Z,17.70
2018-05-16T07:11:48.238Z,17.70
2018-05-16T07:12:25.637Z,17.70
2018-05-16T07:13:03.952Z,17.70
2018-05-16T07:13:41.304Z,17.70
2018-05-16T07:14:18.807Z,17.80
2018-05-16T07:14:56.393Z,17.70
2018-05-16T07:15:33.752Z,17.70
2018-05-16T07:16:11.096Z,17.60
2018-05-16T07:16:48.652Z,17.60
2018-05-16T07:17:26.702Z,17.70
2018-05-16T07:18:04.211Z,17.70
2018-05-16T07:18:41.780Z,17.80
2018-05-16T07:19:19.378Z,17.70
2018-05-16T07:19:56.932Z,17.70
2018-05-16T07:20:35.030Z,17.70
2018-05-16T07:21:12.335Z,17.70
2018-05-16T07:21:50.044Z,17.70
2018-05-16T07:22:28.162Z,17.60
2018-05-16T07:23:06.471Z,17.70
2018-05-16T07:23:44.761Z,17.60
2018-05-16T07:24:22.127Z,17.60
2018-05-16T07:24:59.747Z,17.60
2018-05-16T07:25:37.314Z,17.70
2018-05-16T07:26:15.420Z,17.70
2018-05-16T07:26:53.008Z,17.70
2018-05-16T07:27:31.228Z,17.70
2018-05-16T07:28:08.799Z,17.70
2018-05-16T07:28:46.375Z,17.70
2018-05-16T07:29:24.675Z,17.70
2018-05-16T07:30:02.155Z,17.70
2018-05-16T07:30:39.708Z,17.70
2018-05-16T07:31:17.335Z,17.70
2018-05-16T07:31:54.743Z,17.70
2018-05-16T07:32:32.436Z,17.70
2018-05-16T07:33:09.908Z,17.70
2018-05-16T07:33:48.020Z,17.60
2018-05-16T07:34:25.504Z,17.60
2018-05-16T07:35:03.075Z,17.70
2018-05-16T07:35:40.707Z,17.70
2018-05-16T07:36:18.867Z,17.70
2018-05-16T07:36:56.982Z,17.70
2018-05-16T07:37:34.548Z,17.70
2018-05-16T07:38:12.171Z,17.70
2018-05-16T07:38:49.709Z,17.70
2018-05-16T07:39:27.786Z,17.60
2018-05-16T07:40:05.065Z,17.60
2018-05-16T07:40:42.524Z,17.60
2018-05-16T07:41:19.915Z,17.60
2018-05-16T07:41:57.429Z,17.60
2018-05-16T07:42:34.802Z,17.60
2018-05-16T07:43:12.338Z,17.50
2018-05-16T07:43:49.808Z,17.50
2018-05-16T07:44:27.453Z,17.60
2018-05-16T07:45:04.992Z,17.60
2018-05-16T07:45:43.391Z,17.70
2018-05-16T07:46:21.715Z,17.80
2018-05-16T07:46:59.304Z,17.70
2018-05-16T07:47:36.839Z,17.70
2018-05-16T07:48:14.488Z,17.80
2018-05-16T07:48:52.747Z,17.80
2018-05-16T07:49:30.296Z,17.80
2018-05-16T07:50:07.935Z,17.90
2018-05-16T07:50:46.106Z,17.90
2018-05-16T07:51:23.487Z,17.90
2018-05-16T07:52:01.076Z,17.90
2018-05-16T07:52:38.644Z,17.90
2018-05-16T07:53:16.261Z,17.90
2018-05-16T07:53:53.846Z,17.90
2018-05-16T07:54:31.491Z,17.90
2018-05-16T07:55:09.027Z,17.90
2018-05-16T07:55:46.515Z,17.90
2018-05-16T07:56:24.645Z,17.90
2018-05-16T07:57:02.297Z,17.90
2018-05-16T07:57:39.805Z,17.80
2018-05-16T07:58:17.151Z,17.90
2018-05-16T07:58:54.774Z,17.80
2018-05-16T07:59:33.067Z,17.90
2018-05-16T08:00:10.647Z,17.90
2018-05-16T08:00:48.842Z,17.90
2018-05-16T08:01:26.222Z,17.90
2018-05-16T08:02:03.781Z,17.90
2018-05-16T08:02:41.137Z,17.90
2018-05-16T08:03:18.784Z,17.90
2018-05-16T08:03:56.268Z,17.80
2018-05-16T08:04:33.688Z,17.80
2018-05-16T08:05:11.794Z,17.80
2018-05-16T08:05:49.282Z,17.80
2018-05-16T08:06:27.683Z,17.80